Time;durP1;ratioP1;P1;durP2;ratioP2;P2;SDS_P1;SDS_P2;PMS_P1;PMS_P2;Temp;Humidity;BMP_temperature;BMP_pressure;BME280_temperature;BME280_humidity;BME280_pressure;Samples;Min_cycle;Max_cycle;Signal;HPM_P1;HPM_P2
2023/10/18 00:00:31;;;;;;;24.67;11.30;;;;;;;;;;5013984;28;20202;-46
2023/10/18 00:03:19;;;;;;;21.97;10.20;;;;;;;;;;5013367;28;20202;-45
2023/10/18 00:05:47;;;;;;;26.30;10.13;;;;;;;;;;5013413;28;20233;-46
2023/10/18 00:08:15;;;;;;;22.27;9.80;;;;;;;;;;5013794;28;20202;-46
2023/10/18 00:10:42;;;;;;;23.40;10.43;;;;;;;;;;5013287;28;20217;-48
2023/10/18 00:13:11;;;;;;;20.40;10.25;;;;;;;;;;5013271;28;20198;-45
2023/10/18 00:15:39;;;;;;;30.67;14.97;;;;;;;;;;5013155;28;20212;-46
2023/10/18 00:18:06;;;;;;;33.17;13.10;;;;;;;;;;5013045;28;20658;-46
2023/10/18 00:20:35;;;;;;;26.77;10.30;;;;;;;;;;5013040;28;20212;-47
2023/10/18 00:23:03;;;;;;;27.20;10.43;;;;;;;;;;5012978;28;20213;-49
2023/10/18 00:25:32;;;;;;;27.50;10.70;;;;;;;;;;5012910;28;20769;-46
2023/10/18 00:27:59;;;;;;;16.90;8.37;;;;;;;;;;5013191;28;20241;-48
2023/10/18 00:30:27;;;;;;;20.30;8.87;;;;;;;;;;5012913;28;20260;-45
2023/10/18 00:32:54;;;;;;;28.60;9.67;;;;;;;;;;5013106;28;20288;-48
2023/10/18 00:35:31;;;;;;;25.02;10.13;;;;;;;;;;5013233;28;20197;-46
2023/10/18 00:37:58;;;;;;;19.03;9.40;;;;;;;;;;5013152;28;20240;-46
2023/10/18 00:43:20;;;;;;;19.33;9.30;;;;;;;;;;5011731;28;20185;-45
2023/10/18 00:45:53;;;;;;;24.37;9.20;;;;;;;;;;5011599;28;20225;-47
2023/10/18 00:48:25;;;;;;;19.63;9.13;;;;;;;;;;5013014;28;20198;-45
2023/10/18 00:50:54;;;;;;;15.70;7.50;;;;;;;;;;5012794;28;20236;-49
2023/10/18 00:53:23;;;;;;;18.30;8.97;;;;;;;;;;5011317;28;20239;-47
2023/10/18 00:55:53;;;;;;;19.30;8.37;;;;;;;;;;5013055;28;20205;-46
2023/10/18 00:58:24;;;;;;;20.03;8.53;;;;;;;;;;5012616;28;20186;-46
2023/10/18 01:00:52;;;;;;;14.80;7.87;;;;;;;;;;5011352;28;20205;-45
2023/10/18 01:03:28;;;;;;;17.47;8.33;;;;;;;;;;5011279;28;20726;-45
2023/10/18 01:06:12;;;;;;;21.80;9.03;;;;;;;;;;5012285;28;20224;-46
2023/10/18 01:08:40;;;;;;;20.60;8.57;;;;;;;;;;5012295;28;20200;-45
2023/10/18 01:11:09;;;;;;;16.43;8.37;;;;;;;;;;5012552;28;20255;-46
2023/10/18 01:13:42;;;;;;;15.57;7.57;;;;;;;;;;5010911;28;20659;-46
2023/10/18 01:16:31;;;;;;;20.30;8.07;;;;;;;;;;5011153;28;20573;-46
2023/10/18 01:18:58;;;;;;;19.50;8.40;;;;;;;;;;5011321;28;20212;-50
2023/10/18 01:21:26;;;;;;;17.27;9.13;;;;;;;;;;5012281;28;20235;-48
2023/10/18 01:23:56;;;;;;;15.73;8.00;;;;;;;;;;5012111;28;20197;-50
2023/10/18 01:26:27;;;;;;;16.90;8.03;;;;;;;;;;5012228;28;20297;-49
2023/10/18 01:28:55;;;;;;;17.67;8.23;;;;;;;;;;5010685;28;20292;-45
2023/10/18 01:31:24;;;;;;;17.57;8.37;;;;;;;;;;5012189;28;20271;-48
2023/10/18 01:33:51;;;;;;;21.80;8.60;;;;;;;;;;5012112;28;20201;-46
2023/10/18 01:36:21;;;;;;;19.80;8.33;;;;;;;;;;5012105;28;20581;-48
2023/10/18 01:38:56;;;;;;;23.13;8.20;;;;;;;;;;5011041;28;20213;-46
2023/10/18 01:41:25;;;;;;;17.30;8.47;;;;;;;;;;5010636;28;20573;-46
2023/10/18 01:43:59;;;;;;;17.77;8.27;;;;;;;;;;5011690;28;20551;-46
2023/10/18 01:46:26;;;;;;;21.63;8.57;;;;;;;;;;5012054;28;20194;-45
2023/10/18 01:48:55;;;;;;;18.33;7.93;;;;;;;;;;5011147;28;20248;-51
2023/10/18 01:51:23;;;;;;;15.70;8.23;;;;;;;;;;5011768;28;20218;-48
2023/10/18 01:53:55;;;;;;;16.87;8.43;;;;;;;;;;5011739;28;20209;-47
2023/10/18 01:56:22;;;;;;;21.37;8.77;;;;;;;;;;5011972;28;20209;-45
2023/10/18 01:58:50;;;;;;;19.57;10.13;;;;;;;;;;5010759;28;20206;-49
2023/10/18 02:01:17;;;;;;;26.40;12.50;;;;;;;;;;5010792;28;20205;-48
2023/10/18 02:03:44;;;;;;;32.00;14.83;;;;;;;;;;5011662;28;20216;-45
2023/10/18 02:06:15;;;;;;;31.87;10.50;;;;;;;;;;5011594;28;20225;-46
2023/10/18 02:08:43;;;;;;;29.93;10.83;;;;;;;;;;5011609;28;20205;-46
2023/10/18 02:11:11;;;;;;;21.33;8.57;;;;;;;;;;5011838;28;20216;-47
2023/10/18 02:13:39;;;;;;;18.37;9.13;;;;;;;;;;5010697;28;20213;-47
2023/10/18 02:16:06;;;;;;;19.20;8.13;;;;;;;;;;5014910;28;20209;-45
2023/10/18 02:18:34;;;;;;;18.33;8.80;;;;;;;;;;5015630;28;20268;-46
2023/10/18 02:21:05;;;;;;;18.40;8.27;;;;;;;;;;5015547;28;20208;-46
2023/10/18 02:23:34;;;;;;;22.27;8.37;;;;;;;;;;5015724;28;20202;-51
2023/10/18 02:26:09;;;;;;;18.63;8.17;;;;;;;;;;5014010;28;20225;-46
2023/10/18 02:28:37;;;;;;;15.53;8.40;;;;;;;;;;5015505;28;20557;-45
2023/10/18 02:31:13;;;;;;;21.70;9.33;;;;;;;;;;5015502;28;20209;-50
2023/10/18 02:33:42;;;;;;;15.90;8.10;;;;;;;;;;5015599;28;20205;-47
2023/10/18 02:38:56;;;;;;;21.67;9.17;;;;;;;;;;5015115;28;20662;-48
2023/10/18 02:41:29;;;;;;;25.23;9.50;;;;;;;;;;5013855;28;20209;-46
2023/10/18 02:43:59;;;;;;;18.38;7.97;;;;;;;;;;5013733;28;20688;-47
2023/10/18 02:46:27;;;;;;;18.27;8.73;;;;;;;;;;5015067;28;20312;-49
2023/10/18 02:48:56;;;;;;;20.90;8.93;;;;;;;;;;5014738;28;20201;-46
2023/10/18 02:51:24;;;;;;;18.73;7.93;;;;;;;;;;5014759;28;20205;-50
2023/10/18 02:54:32;;;;;;;17.63;9.47;;;;;;;;;;5014788;28;20197;-47
2023/10/18 02:56:55;;;;;;;22.03;8.83;;;;;;;;;;5012102;28;20228;-45
2023/10/18 02:59:24;;;;;;;17.53;7.77;;;;;;;;;;5014979;28;20566;-47
2023/10/18 03:01:57;;;;;;;18.30;8.07;;;;;;;;;;5014788;28;20202;-49
2023/10/18 03:04:28;;;;;;;16.93;7.87;;;;;;;;;;5014793;28;20212;-46
2023/10/18 03:06:57;;;;;;;18.37;8.27;;;;;;;;;;5013549;28;20210;-48
2023/10/18 03:09:27;;;;;;;20.23;8.90;;;;;;;;;;5014799;28;20207;-46
2023/10/18 03:11:56;;;;;;;19.58;9.95;;;;;;;;;;5014979;28;20244;-46
2023/10/18 03:14:41;;;;;;;24.20;10.63;;;;;;;;;;5013062;28;20197;-46
2023/10/18 03:19:54;;;;;;;18.80;8.07;;;;;;;;;;5013265;28;20293;-45
2023/10/18 03:22:32;;;;;;;15.75;7.95;;;;;;;;;;5013242;28;20229;-45
2023/10/18 03:24:59;;;;;;;15.57;7.47;;;;;;;;;;5014447;28;20567;-46
2023/10/18 03:27:31;;;;;;;16.47;7.60;;;;;;;;;;5013840;28;20364;-47
2023/10/18 03:30:09;;;;;;;11.73;6.60;;;;;;;;;;5012782;28;20201;-45
2023/10/18 03:32:38;;;;;;;14.27;7.20;;;;;;;;;;5012963;28;20201;-46
2023/10/18 03:35:09;;;;;;;16.50;7.27;;;;;;;;;;5013915;28;20307;-48
2023/10/18 03:37:39;;;;;;;17.10;7.40;;;;;;;;;;5014005;28;20276;-47
2023/10/18 03:40:18;;;;;;;16.57;7.70;;;;;;;;;;5012653;28;20198;-46
2023/10/18 03:42:50;;;;;;;15.37;7.53;;;;;;;;;;5012707;28;20197;-52
2023/10/18 03:45:21;;;;;;;11.63;7.35;;;;;;;;;;5012782;28;20221;-49
2023/10/18 03:47:58;;;;;;;15.73;7.97;;;;;;;;;;5013525;28;20206;-48
2023/10/18 03:50:35;;;;;;;15.80;8.00;;;;;;;;;;5012546;28;20192;-46
2023/10/18 03:53:06;;;;;;;17.70;7.47;;;;;;;;;;5011834;28;20200;-49
2023/10/18 03:55:39;;;;;;;17.53;8.67;;;;;;;;;;5012304;28;20660;-49
2023/10/18 03:58:07;;;;;;;13.98;7.28;;;;;;;;;;5012310;28;20205;-48
2023/10/18 04:00:38;;;;;;;16.93;7.67;;;;;;;;;;5013656;28;20207;-51
2023/10/18 04:03:10;;;;;;;20.63;8.43;;;;;;;;;;5013486;28;20236;-46
2023/10/18 04:05:44;;;;;;;16.55;8.40;;;;;;;;;;5013509;28;20239;-48
2023/10/18 04:08:19;;;;;;;15.63;7.67;;;;;;;;;;5013743;28;20220;-48
2023/10/18 04:10:59;;;;;;;54.17;20.33;;;;;;;;;;5011010;28;20259;-45
2023/10/18 04:13:35;;;;;;;29.73;15.00;;;;;;;;;;5001423;28;20228;-45
2023/10/18 04:16:12;;;;;;;22.13;9.23;;;;;;;;;;5012173;28;20299;-46
2023/10/18 04:18:41;;;;;;;18.27;8.15;;;;;;;;;;5012441;28;20220;-46
2023/10/18 04:21:15;;;;;;;20.02;8.63;;;;;;;;;;5012098;28;20859;-49
2023/10/18 04:23:46;;;;;;;18.40;9.33;;;;;;;;;;5012361;28;20583;-46
2023/10/18 04:26:18;;;;;;;17.47;8.73;;;;;;;;;;5011566;28;20241;-46
2023/10/18 04:28:48;;;;;;;22.63;9.83;;;;;;;;;;4995975;28;20225;-45
2023/10/18 04:31:21;;;;;;;21.67;10.10;;;;;;;;;;5012027;28;20226;-47
2023/10/18 04:33:50;;;;;;;19.80;10.43;;;;;;;;;;5011939;28;20228;-49
2023/10/18 04:36:20;;;;;;;28.10;11.63;;;;;;;;;;5012180;28;20227;-49
2023/10/18 04:38:49;;;;;;;24.70;11.53;;;;;;;;;;5011685;28;20245;-48
2023/10/18 04:41:24;;;;;;;30.10;12.57;;;;;;;;;;5011394;28;20680;-48
2023/10/18 04:44:04;;;;;;;35.43;13.47;;;;;;;;;;5027876;28;20274;-53
2023/10/18 04:46:35;;;;;;;40.33;27.13;;;;;;;;;;5031190;28;20242;-50
2023/10/18 04:54:11;;;;;;;17.20;8.97;;;;;;;;;;5030931;28;20629;-49
2023/10/18 04:56:38;;;;;;;13.60;7.80;;;;;;;;;;5031098;28;20263;-45
2023/10/18 04:59:52;;;;;;;15.97;7.90;;;;;;;;;;5019742;28;20244;-45
2023/10/18 05:01:58;;;;;;;15.43;7.87;;;;;;;;;;5004444;28;20229;-46
2023/10/18 05:04:30;;;;;;;18.67;8.20;;;;;;;;;;5011948;28;20221;-46
2023/10/18 05:07:01;;;;;;;15.13;7.60;;;;;;;;;;5011385;28;20229;-47
2023/10/18 05:09:34;;;;;;;14.87;7.93;;;;;;;;;;5011906;28;20221;-48
2023/10/18 05:12:07;;;;;;;17.43;8.03;;;;;;;;;;5011002;28;20227;-46
2023/10/18 05:14:49;;;;;;;17.47;8.63;;;;;;;;;;5011527;28;20229;-47
2023/10/18 05:17:26;;;;;;;17.30;8.97;;;;;;;;;;5011435;28;20271;-48
2023/10/18 05:19:55;;;;;;;17.03;9.00;;;;;;;;;;5011658;28;20254;-48
2023/10/18 05:22:24;;;;;;;15.27;7.40;;;;;;;;;;5020073;28;20207;-46
2023/10/18 05:27:38;;;;;;;15.27;8.07;;;;;;;;;;5030848;28;20228;-47
2023/10/18 05:30:14;;;;;;;19.17;8.23;;;;;;;;;;5031523;28;20193;-48
2023/10/18 05:35:30;;;;;;;15.80;7.87;;;;;;;;;;5031685;28;20287;-47
2023/10/18 05:37:59;;;;;;;16.80;8.07;;;;;;;;;;5032013;28;20291;-46
2023/10/18 05:43:23;;;;;;;13.53;7.33;;;;;;;;;;5031482;28;20204;-50
2023/10/18 05:45:56;;;;;;;12.37;6.83;;;;;;;;;;5031483;28;20858;-47
2023/10/18 05:48:24;;;;;;;17.43;7.53;;;;;;;;;;5031872;28;20212;-46
2023/10/18 05:51:25;;;;;;;13.67;7.50;;;;;;;;;;5034636;28;20201;-45
2023/10/18 05:53:58;;;;;;;19.98;8.02;;;;;;;;;;5036154;28;20242;-48
2023/10/18 05:56:32;;;;;;;16.53;8.40;;;;;;;;;;5035752;28;20214;-45
2023/10/18 06:01:49;;;;;;;19.70;8.73;;;;;;;;;;5035790;28;20551;-49
2023/10/18 06:04:25;;;;;;;19.20;9.73;;;;;;;;;;5035633;28;20258;-46
2023/10/18 06:07:18;;;;;;;17.73;9.05;;;;;;;;;;5035361;28;20700;-45
2023/10/18 06:10:16;;;;;;;18.23;9.73;;;;;;;;;;5035523;28;20232;-49
2023/10/18 06:12:40;;;;;;;22.77;9.77;;;;;;;;;;5015865;28;20208;-45
2023/10/18 06:15:11;;;;;;;17.07;8.60;;;;;;;;;;5015509;28;20296;-46
2023/10/18 06:17:46;;;;;;;15.60;8.13;;;;;;;;;;5015665;28;20178;-45
2023/10/18 06:20:37;;;;;;;23.60;10.40;;;;;;;;;;5015445;28;20200;-46
2023/10/18 06:23:09;;;;;;;19.98;9.43;;;;;;;;;;5015658;28;20220;-46
2023/10/18 06:25:49;;;;;;;19.97;8.80;;;;;;;;;;4996760;28;20257;-46
2023/10/18 06:28:24;;;;;;;16.53;8.50;;;;;;;;;;5015366;28;20228;-45
2023/10/18 06:30:54;;;;;;;19.43;8.80;;;;;;;;;;5015166;28;20288;-45
2023/10/18 06:33:21;;;;;;;18.30;9.30;;;;;;;;;;5015222;28;20213;-49
2023/10/18 06:35:52;;;;;;;15.43;8.20;;;;;;;;;;5015236;28;20205;-46
2023/10/18 06:38:23;;;;;;;18.30;8.63;;;;;;;;;;5015417;28;20209;-46
2023/10/18 06:40:53;;;;;;;15.30;7.47;;;;;;;;;;5015305;28;20219;-45
2023/10/18 06:43:32;;;;;;;14.67;8.20;;;;;;;;;;5015164;28;20463;-46
2023/10/18 06:46:00;;;;;;;16.77;7.97;;;;;;;;;;5014785;28;20249;-50
2023/10/18 06:48:28;;;;;;;12.50;7.15;;;;;;;;;;5015252;28;20197;-46
2023/10/18 06:50:58;;;;;;;16.42;8.43;;;;;;;;;;5014945;28;20308;-46
2023/10/18 06:53:26;;;;;;;17.83;8.87;;;;;;;;;;5014833;28;20212;-48
2023/10/18 06:55:56;;;;;;;15.17;7.93;;;;;;;;;;5015236;28;20674;-49
2023/10/18 07:01:03;;;;;;;16.27;8.07;;;;;;;;;;5014419;28;20205;-48
2023/10/18 07:03:34;;;;;;;17.37;8.53;;;;;;;;;;5014621;28;20658;-47
2023/10/18 07:06:04;;;;;;;16.97;7.57;;;;;;;;;;5014638;28;20316;-48
2023/10/18 07:08:39;;;;;;;16.42;7.70;;;;;;;;;;5014843;28;20194;-45
2023/10/18 07:11:16;;;;;;;16.17;7.72;;;;;;;;;;5014842;28;20201;-48
2023/10/18 07:13:54;;;;;;;16.50;7.85;;;;;;;;;;5014512;28;20205;-47
2023/10/18 07:19:06;;;;;;;16.83;7.90;;;;;;;;;;5014321;28;20658;-46
2023/10/18 07:21:34;;;;;;;17.67;8.55;;;;;;;;;;5014605;28;20212;-45
2023/10/18 07:24:09;;;;;;;16.77;7.72;;;;;;;;;;5014371;28;20542;-48
2023/10/18 07:26:40;;;;;;;16.50;8.02;;;;;;;;;;5014322;28;20307;-45
2023/10/18 07:29:07;;;;;;;14.45;7.53;;;;;;;;;;5014610;28;20205;-45
2023/10/18 07:31:47;;;;;;;21.40;8.73;;;;;;;;;;5014057;28;20216;-45
2023/10/18 07:34:31;;;;;;;16.45;7.45;;;;;;;;;;5014581;28;20535;-48
2023/10/18 07:37:16;;;;;;;14.32;7.70;;;;;;;;;;5014019;28;20221;-49
2023/10/18 07:39:59;;;;;;;14.98;6.70;;;;;;;;;;5013932;28;20205;-46
2023/10/18 07:42:27;;;;;;;12.88;7.38;;;;;;;;;;4995389;28;20284;-48
2023/10/18 07:44:55;;;;;;;13.60;7.03;;;;;;;;;;5013755;28;20206;-47
2023/10/18 07:47:25;;;;;;;16.10;7.03;;;;;;;;;;5013636;28;20706;-48
2023/10/18 07:49:58;;;;;;;18.00;6.20;;;;;;;;;;5013920;28;20205;-50
2023/10/18 07:52:26;;;;;;;12.32;6.50;;;;;;;;;;5013634;28;20843;-49
2023/10/18 07:54:53;;;;;;;10.65;6.80;;;;;;;;;;5014022;28;20198;-47
2023/10/18 07:57:29;;;;;;;10.77;6.07;;;;;;;;;;5013835;28;20228;-46
2023/10/18 08:02:43;;;;;;;15.82;7.00;;;;;;;;;;5013531;28;20212;-45
2023/10/18 08:05:11;;;;;;;10.07;5.93;;;;;;;;;;5013513;28;20205;-45
2023/10/18 08:07:38;;;;;;;14.07;6.88;;;;;;;;;;5013593;28;20256;-48
2023/10/18 08:10:08;;;;;;;14.43;6.55;;;;;;;;;;5013439;28;20249;-48
2023/10/18 08:12:36;;;;;;;16.60;6.50;;;;;;;;;;5012794;28;20256;-48
2023/10/18 08:15:13;;;;;;;11.50;6.15;;;;;;;;;;5013356;28;20205;-46
2023/10/18 08:17:43;;;;;;;10.10;5.90;;;;;;;;;;5013415;28;20305;-46
2023/10/18 08:22:52;;;;;;;11.43;5.85;;;;;;;;;;5013066;28;20233;-45
2023/10/18 08:25:31;;;;;;;10.80;5.03;;;;;;;;;;5013110;28;20200;-52
2023/10/18 08:28:06;;;;;;;10.95;5.38;;;;;;;;;;5013212;28;20243;-46
2023/10/18 08:33:10;;;;;;;8.07;4.65;;;;;;;;;;5013381;28;20276;-48
2023/10/18 08:35:37;;;;;;;11.00;5.90;;;;;;;;;;5013154;28;20205;-48
2023/10/18 08:38:04;;;;;;;9.35;5.35;;;;;;;;;;5013227;28;20205;-46
2023/10/18 08:43:12;;;;;;;9.75;5.95;;;;;;;;;;5013033;28;20194;-45
2023/10/18 08:45:46;;;;;;;9.75;5.68;;;;;;;;;;5011768;28;20205;-47
2023/10/18 08:48:16;;;;;;;12.20;6.30;;;;;;;;;;5012740;28;20545;-46
2023/10/18 08:50:45;;;;;;;12.85;6.20;;;;;;;;;;5012654;28;20229;-45
2023/10/18 08:53:15;;;;;;;12.15;6.82;;;;;;;;;;5011720;28;20225;-47
2023/10/18 08:55:43;;;;;;;10.88;6.47;;;;;;;;;;5012844;28;20193;-46
2023/10/18 08:58:17;;;;;;;12.25;6.13;;;;;;;;;;5012592;28;20205;-46
2023/10/18 09:03:24;;;;;;;11.88;6.95;;;;;;;;;;5012642;28;20229;-46
2023/10/18 09:06:02;;;;;;;17.80;6.88;;;;;;;;;;5012523;28;20235;-45
2023/10/18 09:08:42;;;;;;;10.50;6.07;;;;;;;;;;5012405;28;20209;-49
2023/10/18 09:11:22;;;;;;;13.40;6.90;;;;;;;;;;5012237;28;20192;-46
2023/10/18 09:14:11;;;;;;;13.60;6.03;;;;;;;;;;5012279;28;20189;-50
2023/10/18 09:16:42;;;;;;;14.45;6.85;;;;;;;;;;5012361;28;20209;-45
2023/10/18 09:19:10;;;;;;;8.88;5.60;;;;;;;;;;5012298;28;20205;-48
2023/10/18 09:21:57;;;;;;;12.52;5.70;;;;;;;;;;5012073;28;20201;-45
2023/10/18 09:24:30;;;;;;;10.15;5.72;;;;;;;;;;5012193;28;20224;-45
2023/10/18 09:27:00;;;;;;;8.82;5.88;;;;;;;;;;5012182;28;20264;-46
2023/10/18 09:29:28;;;;;;;10.20;6.03;;;;;;;;;;5011966;28;20218;-45
2023/10/18 09:32:02;;;;;;;10.75;5.68;;;;;;;;;;5012347;28;20550;-46
2023/10/18 09:34:42;;;;;;;10.20;5.10;;;;;;;;;;5012168;28;20192;-51
2023/10/18 09:37:13;;;;;;;7.03;4.85;;;;;;;;;;5011929;28;20220;-49
2023/10/18 09:39:44;;;;;;;7.45;4.93;;;;;;;;;;5011927;28;20737;-46
2023/10/18 09:42:15;;;;;;;11.05;5.72;;;;;;;;;;5011995;28;20205;-46
2023/10/18 09:44:44;;;;;;;8.18;4.95;;;;;;;;;;5011978;28;20283;-49
2023/10/18 09:47:12;;;;;;;8.13;5.20;;;;;;;;;;5010823;28;20254;-46
2023/10/18 09:49:42;;;;;;;8.50;4.97;;;;;;;;;;5010822;28;20526;-46
2023/10/18 09:52:13;;;;;;;8.57;4.57;;;;;;;;;;5011936;28;20209;-46
2023/10/18 09:54:50;;;;;;;6.10;4.55;;;;;;;;;;5012070;28;20201;-46
2023/10/18 09:57:25;;;;;;;9.45;4.72;;;;;;;;;;5011600;28;20680;-50
2023/10/18 09:59:54;;;;;;;8.15;4.78;;;;;;;;;;5012011;28;20212;-46
2023/10/18 10:02:23;;;;;;;9.30;5.20;;;;;;;;;;5011666;28;20720;-46
2023/10/18 10:05:03;;;;;;;9.13;5.15;;;;;;;;;;5011741;28;20263;-46
2023/10/18 10:07:39;;;;;;;7.22;4.78;;;;;;;;;;5011856;28;20581;-48
2023/10/18 10:10:10;;;;;;;10.73;4.93;;;;;;;;;;5011854;28;20673;-48
2023/10/18 10:12:42;;;;;;;8.25;4.63;;;;;;;;;;5011907;28;20201;-48
2023/10/18 10:15:17;;;;;;;9.07;4.80;;;;;;;;;;5011579;28;20202;-49
2023/10/18 10:17:57;;;;;;;8.95;3.97;;;;;;;;;;5010538;28;20209;-48
2023/10/18 10:20:31;;;;;;;8.98;4.30;;;;;;;;;;4995126;28;20204;-49
2023/10/18 10:23:02;;;;;;;7.97;4.63;;;;;;;;;;5010659;28;20201;-46
2023/10/18 10:25:32;;;;;;;10.95;4.85;;;;;;;;;;5010308;28;20292;-45
2023/10/18 10:28:14;;;;;;;7.65;4.97;;;;;;;;;;5011758;28;20225;-49
2023/10/18 10:30:43;;;;;;;6.75;4.43;;;;;;;;;;5011452;28;20571;-49
2023/10/18 10:33:13;;;;;;;5.30;3.60;;;;;;;;;;5011575;28;20212;-48
2023/10/18 10:35:45;;;;;;;7.25;3.92;;;;;;;;;;5012170;28;20201;-45
2023/10/18 10:38:13;;;;;;;5.30;3.72;;;;;;;;;;5015238;28;20217;-46
2023/10/18 10:40:48;;;;;;;5.47;3.78;;;;;;;;;;5015027;28;20661;-48
2023/10/18 10:43:19;;;;;;;6.65;3.65;;;;;;;;;;5014996;28;20213;-46
2023/10/18 10:48:15;;;;;;;5.90;3.25;;;;;;;;;;5014951;28;20596;-46
2023/10/18 10:50:53;;;;;;;5.80;3.55;;;;;;;;;;5014851;28;20215;-48
2023/10/18 10:53:29;;;;;;;5.55;3.55;;;;;;;;;;5015033;28;20213;-47
2023/10/18 10:55:56;;;;;;;8.40;3.35;;;;;;;;;;5014793;28;20555;-46
2023/10/18 10:58:29;;;;;;;5.57;2.92;;;;;;;;;;5013844;28;20206;-47
2023/10/18 11:01:07;;;;;;;5.93;3.13;;;;;;;;;;5014903;28;20639;-47
2023/10/18 11:03:53;;;;;;;6.28;3.30;;;;;;;;;;5014783;28;20577;-49
2023/10/18 11:06:22;;;;;;;6.55;3.40;;;;;;;;;;5014792;28;20721;-45
2023/10/18 11:08:54;;;;;;;6.63;3.97;;;;;;;;;;5014585;28;20228;-48
2023/10/18 11:11:22;;;;;;;6.45;4.22;;;;;;;;;;5014414;28;20228;-46
2023/10/18 11:13:53;;;;;;;10.70;4.00;;;;;;;;;;5014371;28;20213;-46
2023/10/18 11:16:24;;;;;;;5.05;3.38;;;;;;;;;;5014301;28;20566;-46
2023/10/18 11:18:52;;;;;;;4.78;3.10;;;;;;;;;;5014508;28;20214;-46
2023/10/18 11:21:28;;;;;;;17.67;3.38;;;;;;;;;;5014201;28;20813;-46
2023/10/18 11:24:04;;;;;;;5.93;3.42;;;;;;;;;;5014294;28;20197;-46
2023/10/18 11:26:39;;;;;;;5.07;3.13;;;;;;;;;;5014079;28;20702;-46
2023/10/18 11:29:07;;;;;;;5.72;3.55;;;;;;;;;;5014616;28;20213;-47
2023/10/18 11:31:38;;;;;;;6.55;3.38;;;;;;;;;;5012914;28;20264;-46
2023/10/18 11:34:06;;;;;;;5.13;3.25;;;;;;;;;;5014527;28;20201;-47
2023/10/18 11:36:39;;;;;;;8.48;3.97;;;;;;;;;;5014063;28;20228;-51
2023/10/18 11:41:42;;;;;;;7.57;3.60;;;;;;;;;;5014011;28;20196;-48
2023/10/18 11:44:16;;;;;;;6.40;3.88;;;;;;;;;;5014203;28;20201;-49
2023/10/18 11:46:49;;;;;;;5.07;3.28;;;;;;;;;;5013556;28;20297;-48
2023/10/18 11:49:20;;;;;;;6.05;4.22;;;;;;;;;;5013419;28;20241;-47
2023/10/18 11:51:51;;;;;;;5.85;3.50;;;;;;;;;;5014372;28;20240;-53
2023/10/18 11:54:35;;;;;;;7.95;4.28;;;;;;;;;;5014140;28;20213;-46
2023/10/18 11:57:06;;;;;;;8.40;4.40;;;;;;;;;;5013626;28;20296;-48
2023/10/18 11:59:54;;;;;;;7.85;3.95;;;;;;;;;;5014101;28;20193;-49
2023/10/18 12:02:29;;;;;;;5.68;3.45;;;;;;;;;;5013445;28;20198;-50
2023/10/18 12:04:57;;;;;;;7.20;3.92;;;;;;;;;;5013704;28;20204;-49
2023/10/18 12:07:25;;;;;;;5.82;3.78;;;;;;;;;;5013589;28;20245;-47
2023/10/18 12:09:53;;;;;;;4.43;3.40;;;;;;;;;;5013621;28;20249;-46
2023/10/18 12:12:20;;;;;;;4.32;3.20;;;;;;;;;;5013600;28;20208;-45
2023/10/18 12:14:47;;;;;;;6.53;3.75;;;;;;;;;;5013718;28;20209;-49
2023/10/18 12:17:15;;;;;;;8.13;3.10;;;;;;;;;;5013652;28;20213;-46
2023/10/18 12:19:42;;;;;;;6.95;3.55;;;;;;;;;;5013420;28;20210;-47
2023/10/18 12:22:10;;;;;;;6.70;3.08;;;;;;;;;;5013227;28;20637;-51
2023/10/18 12:24:38;;;;;;;6.82;3.03;;;;;;;;;;5012213;28;20204;-49
2023/10/18 12:29:54;;;;;;;6.35;3.28;;;;;;;;;;5013323;28;20213;-49
2023/10/18 12:32:27;;;;;;;5.20;2.92;;;;;;;;;;5012963;28;20240;-46
2023/10/18 12:34:58;;;;;;;5.70;3.28;;;;;;;;;;5016147;28;20246;-50
2023/10/18 12:37:25;;;;;;;4.22;3.00;;;;;;;;;;5012275;28;20292;-46
2023/10/18 12:39:57;;;;;;;6.68;3.42;;;;;;;;;;4998773;28;20221;-55
2023/10/18 12:42:25;;;;;;;4.90;3.03;;;;;;;;;;5016444;28;20225;-47
2023/10/18 12:44:59;;;;;;;5.10;2.88;;;;;;;;;;5011609;28;20222;-45
2023/10/18 12:47:28;;;;;;;7.10;4.15;;;;;;;;;;5011666;28;20611;-49
2023/10/18 12:49:56;;;;;;;4.38;2.53;;;;;;;;;;5011594;28;20225;-48
2023/10/18 12:55:32;;;;;;;5.18;2.83;;;;;;;;;;5011642;28;20904;-46
2023/10/18 12:57:53;;;;;;;7.68;3.53;;;;;;;;;;4999741;28;20717;-47
2023/10/18 13:00:25;;;;;;;3.90;2.78;;;;;;;;;;5011589;28;20221;-48
2023/10/18 13:05:20;;;;;;;5.45;2.97;;;;;;;;;;5011792;28;20245;-46
2023/10/18 13:07:54;;;;;;;4.18;2.92;;;;;;;;;;5011137;28;20237;-49
2023/10/18 13:10:31;;;;;;;4.97;3.22;;;;;;;;;;5012070;28;20222;-47
2023/10/18 13:13:04;;;;;;;5.72;3.72;;;;;;;;;;5011479;28;20700;-50
2023/10/18 13:15:33;;;;;;;5.00;2.85;;;;;;;;;;4995645;28;20622;-46
2023/10/18 13:18:00;;;;;;;6.60;3.80;;;;;;;;;;5011853;28;20245;-49
2023/10/18 13:20:34;;;;;;;6.80;3.53;;;;;;;;;;5011794;28;20236;-46
2023/10/18 13:23:04;;;;;;;5.82;3.53;;;;;;;;;;5011143;28;20228;-48
2023/10/18 13:25:37;;;;;;;6.18;3.33;;;;;;;;;;5011710;28;20225;-48
2023/10/18 13:28:05;;;;;;;6.38;3.83;;;;;;;;;;5011903;28;20245;-46
2023/10/18 13:30:39;;;;;;;7.63;3.40;;;;;;;;;;5011526;28;20569;-46
2023/10/18 13:33:13;;;;;;;5.10;3.53;;;;;;;;;;5011833;28;20232;-48
2023/10/18 13:35:40;;;;;;;5.80;3.60;;;;;;;;;;5011311;28;20229;-45
2023/10/18 13:38:08;;;;;;;5.07;3.50;;;;;;;;;;5010771;28;20240;-49
2023/10/18 13:40:36;;;;;;;7.85;3.70;;;;;;;;;;5011418;28;20287;-46
2023/10/18 13:43:05;;;;;;;5.07;3.25;;;;;;;;;;5011385;28;20256;-46
2023/10/18 13:45:33;;;;;;;6.78;3.50;;;;;;;;;;5011194;28;20229;-46
2023/10/18 13:48:02;;;;;;;6.53;2.78;;;;;;;;;;5011267;28;20240;-51
2023/10/18 13:50:37;;;;;;;5.22;3.42;;;;;;;;;;5011066;28;20701;-50
2023/10/18 13:53:07;;;;;;;9.57;3.42;;;;;;;;;;5010697;28;20232;-51
2023/10/18 13:55:34;;;;;;;6.68;3.80;;;;;;;;;;5010989;28;20233;-50
2023/10/18 13:58:07;;;;;;;6.43;3.88;;;;;;;;;;5011053;28;20259;-48
2023/10/18 14:00:35;;;;;;;6.65;3.60;;;;;;;;;;5011111;28;20284;-49
2023/10/18 14:03:02;;;;;;;7.13;3.65;;;;;;;;;;5010741;28;20793;-48
2023/10/18 14:05:31;;;;;;;7.40;3.35;;;;;;;;;;5011127;28;20267;-46
2023/10/18 14:07:58;;;;;;;7.75;4.00;;;;;;;;;;5010316;28;20233;-47
2023/10/18 14:10:31;;;;;;;6.45;4.05;;;;;;;;;;5010947;28;20329;-48
2023/10/18 14:12:59;;;;;;;5.78;3.40;;;;;;;;;;5011164;28;20256;-48
2023/10/18 14:15:26;;;;;;;4.50;2.78;;;;;;;;;;5014378;28;20232;-51
2023/10/18 14:17:54;;;;;;;6.13;3.47;;;;;;;;;;5023238;28;20577;-51
2023/10/18 14:20:25;;;;;;;5.80;3.35;;;;;;;;;;5014487;28;20236;-48
2023/10/18 14:22:55;;;;;;;4.82;3.40;;;;;;;;;;5013627;28;20227;-45
2023/10/18 14:25:24;;;;;;;8.70;4.53;;;;;;;;;;5014430;28;20279;-50
2023/10/18 14:27:52;;;;;;;18.85;4.65;;;;;;;;;;5015014;28;20580;-48
2023/10/18 14:30:20;;;;;;;10.32;4.65;;;;;;;;;;5030707;28;20228;-47
2023/10/18 14:32:47;;;;;;;8.55;4.53;;;;;;;;;;5022494;28;20232;-50
2023/10/18 14:35:16;;;;;;;10.43;4.45;;;;;;;;;;5024247;28;20234;-47
2023/10/18 14:37:45;;;;;;;6.38;3.92;;;;;;;;;;5018681;28;20236;-53
2023/10/18 14:40:13;;;;;;;6.82;3.95;;;;;;;;;;5022601;28;20224;-49
2023/10/18 14:42:40;;;;;;;6.15;3.75;;;;;;;;;;5023311;28;20706;-51
2023/10/18 14:45:10;;;;;;;7.57;4.45;;;;;;;;;;5024602;28;20224;-47
2023/10/18 14:47:38;;;;;;;12.35;4.63;;;;;;;;;;5021249;28;20268;-51
2023/10/18 14:50:06;;;;;;;6.43;3.65;;;;;;;;;;5027987;28;20625;-47
2023/10/18 14:52:34;;;;;;;5.93;3.92;;;;;;;;;;5022058;28;20312;-46
2023/10/18 14:55:04;;;;;;;7.20;3.42;;;;;;;;;;5023441;28;20225;-46
2023/10/18 14:57:31;;;;;;;6.85;3.65;;;;;;;;;;5019781;28;20224;-50
2023/10/18 14:59:59;;;;;;;6.53;4.10;;;;;;;;;;5020013;28;20221;-56
2023/10/18 15:02:26;;;;;;;7.25;4.28;;;;;;;;;;5024587;28;20638;-47
2023/10/18 15:04:53;;;;;;;10.48;4.68;;;;;;;;;;5026904;28;20213;-47
2023/10/18 15:07:20;;;;;;;9.05;5.38;;;;;;;;;;5012922;28;20283;-48
2023/10/18 15:09:47;;;;;;;9.43;5.38;;;;;;;;;;5014699;28;20249;-50
2023/10/18 15:12:17;;;;;;;9.18;5.60;;;;;;;;;;5025551;28;20233;-47
2023/10/18 15:14:45;;;;;;;13.45;5.35;;;;;;;;;;4998064;28;20221;-47
2023/10/18 15:17:12;;;;;;;12.40;5.57;;;;;;;;;;5005736;28;20233;-48
2023/10/18 15:19:40;;;;;;;10.48;5.90;;;;;;;;;;5013910;28;20229;-47
2023/10/18 15:22:07;;;;;;;11.50;5.75;;;;;;;;;;5013509;28;20247;-49
2023/10/18 15:24:41;;;;;;;12.43;5.63;;;;;;;;;;5013947;28;20206;-48
2023/10/18 15:27:12;;;;;;;13.07;7.07;;;;;;;;;;5014738;28;20280;-50
2023/10/18 15:29:40;;;;;;;12.68;6.53;;;;;;;;;;5014536;28;20229;-48
2023/10/18 15:32:08;;;;;;;8.38;5.35;;;;;;;;;;5013988;28;20209;-49
2023/10/18 15:34:35;;;;;;;11.90;5.57;;;;;;;;;;5014271;28;20670;-59
2023/10/18 15:37:06;;;;;;;9.13;4.70;;;;;;;;;;5014133;28;20260;-43
2023/10/18 15:39:33;;;;;;;11.10;5.43;;;;;;;;;;5014075;28;20209;-47
2023/10/18 15:42:00;;;;;;;18.33;6.47;;;;;;;;;;5013807;28;20212;-44
2023/10/18 15:44:29;;;;;;;15.05;6.57;;;;;;;;;;5014264;28;20229;-57
2023/10/18 15:46:59;;;;;;;35.67;12.25;;;;;;;;;;5013744;28;20212;-49
2023/10/18 15:49:30;;;;;;;99.75;44.50;;;;;;;;;;5019034;28;20218;-52
2023/10/18 15:51:59;;;;;;;49.35;24.08;;;;;;;;;;5019051;28;20217;-58
2023/10/18 15:54:27;;;;;;;30.08;10.63;;;;;;;;;;5020609;28;20650;-47